createdAt,value
2019-04-14T00:00:33.689Z,85.2
2019-04-14T00:05:31.249Z,85.9
2019-04-14T00:10:24.659Z,86.4
2019-04-14T00:15:27.485Z,86.8
2019-04-14T00:20:14.219Z,87.1
2019-04-14T00:25:10.705Z,87.1
2019-04-14T00:30:05.455Z,87.2
2019-04-14T00:35:01.642Z,87
2019-04-14T00:39:55.507Z,87.5
2019-04-14T00:44:51.711Z,87.5
2019-04-14T00:49:46.247Z,87.6
2019-04-14T00:54:41.378Z,87.6
2019-04-14T00:59:36.055Z,87.9
2019-04-14T01:04:31.602Z,87.6
2019-04-14T01:09:26.547Z,87.7
2019-04-14T01:14:21.720Z,88.1
2019-04-14T01:19:17.727Z,88.1
2019-04-14T01:24:12.117Z,88.5
2019-04-14T01:29:07.997Z,88.6
2019-04-14T01:34:02.502Z,88.5
2019-04-14T01:38:58.129Z,88.4
2019-04-14T01:43:53.893Z,88.6
2019-04-14T01:48:49.328Z,89
2019-04-14T01:53:44.576Z,89.3
2019-04-14T01:58:39.029Z,89.1
2019-04-14T02:03:34.484Z,89.1
2019-04-14T02:08:30.479Z,88.7
2019-04-14T02:13:24.743Z,88.1
2019-04-14T02:18:20.840Z,87.6
2019-04-14T02:23:16.994Z,87.3
2019-04-14T02:28:11.278Z,86.9
2019-04-14T02:43:29.182Z,86.2
2019-04-14T02:53:14.964Z,85.5
2019-04-14T02:58:09.697Z,85.3
2019-04-14T03:03:08.651Z,85.3
2019-04-14T03:07:59.546Z,85.3
2019-04-14T03:12:57.615Z,85.5
2019-04-14T03:17:59.923Z,85
2019-04-14T03:22:49.596Z,85.1
2019-04-14T03:33:04.286Z,85.7
2019-04-14T03:42:35.022Z,85.1
2019-04-14T03:52:21.525Z,85.1
2019-04-14T03:56:49.197Z,84.9
2019-04-14T04:01:45.567Z,84.8
2019-04-14T04:06:39.958Z,84.8
2019-04-14T04:11:36.532Z,83.6
2019-04-14T04:16:31.202Z,83
2019-04-14T04:21:26.958Z,81.7
2019-04-14T04:26:21.598Z,80.1
2019-04-14T04:31:17.773Z,78.9
2019-04-14T04:36:13.708Z,78.5
2019-04-14T04:41:08.452Z,74.2
2019-04-14T04:46:04.832Z,68.1
2019-04-14T04:51:00.693Z,64.7
2019-04-14T04:55:56.783Z,66.6
2019-04-14T05:00:54.301Z,47.9
2019-04-14T05:05:49.665Z,59.7
2019-04-14T05:10:45.999Z,56.2
2019-04-14T05:15:42.371Z,53.7
2019-04-14T05:20:37.766Z,61
2019-04-14T05:25:32.669Z,63.8
2019-04-14T05:30:28.527Z,63.9
2019-04-14T05:35:23.335Z,61.7
2019-04-14T05:40:18.873Z,64.4
2019-04-14T05:45:15.250Z,65.1
2019-04-14T05:50:11.541Z,65.1
2019-04-14T05:55:06.523Z,63.8
2019-04-14T06:00:01.770Z,64.8
2019-04-14T06:04:57.035Z,61.4
2019-04-14T06:09:51.527Z,59.9
2019-04-14T06:14:47.335Z,58.4
2019-04-14T06:19:43.338Z,56.6
2019-04-14T06:24:39.415Z,54.3
2019-04-14T06:29:35.454Z,53.9
2019-04-14T06:34:31.486Z,51.2
2019-04-14T06:39:27.559Z,49.1
2019-04-14T06:44:23.288Z,53.4
2019-04-14T06:49:16.161Z,53.2
2019-04-14T06:54:12.353Z,47.6
2019-04-14T06:59:08.738Z,45.4
2019-04-14T07:04:04.890Z,36.3
2019-04-14T07:09:03.482Z,19.6
2019-04-14T07:14:04.733Z,21.4
2019-04-14T07:19:04.004Z,19.2
2019-04-14T07:24:01.540Z,21.6
2019-04-14T07:28:59.266Z,29.6
2019-04-14T07:33:53.808Z,26.5
2019-04-14T07:38:49.911Z,16.9
2019-04-14T07:43:46.892Z,23.3
2019-04-14T07:48:43.225Z,28.5
2019-04-14T07:53:37.515Z,29.1
2019-04-14T07:58:31.530Z,25.4
2019-04-14T08:03:26.557Z,36.4
2019-04-14T08:08:21.025Z,32
2019-04-14T08:13:16.215Z,37.5
2019-04-14T08:18:10.686Z,40.7
2019-04-14T08:23:06.186Z,47.7
2019-04-14T08:28:01.800Z,37.3
2019-04-14T08:32:57.535Z,37.4
2019-04-14T08:37:53.757Z,52.1
2019-04-14T08:42:49.210Z,51.9
2019-04-14T08:47:45.281Z,46.5
2019-04-14T08:52:41.350Z,50.2
2019-04-14T08:57:37.674Z,50.3
2019-04-14T09:02:34.341Z,48.5
2019-04-14T09:07:30.500Z,46
2019-04-14T09:12:26.665Z,44.5
2019-04-14T09:17:22.859Z,42
2019-04-14T09:22:19.532Z,35.4
2019-04-14T09:27:16.701Z,36.2
2019-04-14T09:32:13.095Z,35.7
2019-04-14T09:37:12.182Z,37.1
2019-04-14T09:42:06.407Z,35.8
2019-04-14T09:47:02.404Z,37.6
2019-04-14T09:52:01.222Z,30.5
2019-04-14T09:56:57.280Z,34
2019-04-14T10:01:53.254Z,34.9
2019-04-14T10:06:48.205Z,37
2019-04-14T10:11:48.699Z,33.7
2019-04-14T10:16:40.322Z,26
2019-04-14T10:21:38.064Z,19.6
2019-04-14T10:26:36.437Z,24.3
2019-04-14T10:31:32.964Z,24.4
2019-04-14T10:36:29.635Z,25.9
2019-04-14T10:41:24.935Z,29.9
2019-04-14T10:46:19.668Z,32.2
2019-04-14T10:51:14.596Z,35.6
2019-04-14T10:56:09.652Z,36.6
2019-04-14T11:01:04.561Z,33.5
2019-04-14T11:06:00.868Z,24.9
2019-04-14T11:10:58.373Z,28
2019-04-14T11:15:54.157Z,34.9
2019-04-14T11:20:48.595Z,37.4
2019-04-14T11:25:42.956Z,37.7
2019-04-14T11:30:37.175Z,39.1
2019-04-14T11:35:31.884Z,40.7
2019-04-14T11:40:26.767Z,42.1
2019-04-14T11:45:21.788Z,41.6
2019-04-14T11:50:16.216Z,41.7
2019-04-14T11:55:11.860Z,42.1
2019-04-14T12:00:07.275Z,41.4
2019-04-14T12:05:02.873Z,41.1
2019-04-14T12:09:58.175Z,40.5
2019-04-14T12:14:53.872Z,40.2
2019-04-14T12:19:49.885Z,40.5
2019-04-14T12:24:45.681Z,39.8
2019-04-14T12:29:41.280Z,39.2
2019-04-14T12:34:37.315Z,39.7
2019-04-14T12:39:33.667Z,41.5
2019-04-14T12:44:29.688Z,42.3
2019-04-14T12:49:24.713Z,42
2019-04-14T12:54:20.895Z,42.2
2019-04-14T12:59:16.482Z,42.2
2019-04-14T13:04:11.776Z,40.2
2019-04-14T13:09:08.044Z,39.9
2019-04-14T13:14:04.138Z,32.5
2019-04-14T13:19:00.556Z,40.4
2019-04-14T13:23:55.821Z,43.4
2019-04-14T13:28:50.729Z,46
2019-04-14T13:33:45.757Z,47.4
2019-04-14T13:38:40.761Z,45.5
2019-04-14T13:43:36.147Z,48.3
2019-04-14T13:48:31.654Z,47.5
2019-04-14T13:53:27.108Z,38.6
2019-04-14T13:58:24.013Z,35.4
2019-04-14T14:03:20.728Z,37.4
2019-04-14T14:08:17.121Z,36.1
2019-04-14T14:13:12.642Z,36.7
2019-04-14T14:18:08.747Z,36.3
2019-04-14T14:23:04.309Z,35.7
2019-04-14T14:27:59.971Z,36
2019-04-14T14:32:55.886Z,37.3
2019-04-14T14:37:51.787Z,36.8
2019-04-14T14:42:47.522Z,35.6
2019-04-14T14:47:43.171Z,36.6
2019-04-14T14:52:38.841Z,37.2
2019-04-14T14:57:34.566Z,40
2019-04-14T15:02:30.267Z,39.3
2019-04-14T15:07:26.003Z,39.2
2019-04-14T15:12:21.363Z,41.8
2019-04-14T15:17:17.039Z,43.2
2019-04-14T15:22:12.548Z,49.1
2019-04-14T15:27:07.978Z,50.1
2019-04-14T15:32:03.406Z,53.2
2019-04-14T15:36:58.763Z,53.9
2019-04-14T15:41:53.974Z,48.7
2019-04-14T15:46:49.558Z,43.9
2019-04-14T15:51:45.465Z,46.2
2019-04-14T15:56:41.172Z,53.6
2019-04-14T16:01:36.591Z,61.2
2019-04-14T16:06:31.759Z,64.9
2019-04-14T16:11:26.970Z,66.4
2019-04-14T16:16:21.593Z,67.5
2019-04-14T16:21:16.790Z,67.8
2019-04-14T16:26:11.929Z,69.4
2019-04-14T16:31:07.295Z,72
2019-04-14T16:36:02.789Z,74
2019-04-14T16:40:58.318Z,75.1
2019-04-14T16:45:53.658Z,76.7
2019-04-14T16:50:48.793Z,77.5
2019-04-14T16:55:43.970Z,78.4
2019-04-14T17:00:39.150Z,79.1
2019-04-14T17:05:35.003Z,79.4
2019-04-14T17:10:30.320Z,79.7
2019-04-14T17:15:25.523Z,80.2
2019-04-14T17:20:20.802Z,80.8
2019-04-14T17:25:15.999Z,81.3
2019-04-14T17:30:11.462Z,81.6
2019-04-14T17:35:07.198Z,81.9
2019-04-14T17:40:02.011Z,81.9
2019-04-14T17:44:57.304Z,82.3
2019-04-14T17:49:52.370Z,82.5
2019-04-14T17:54:47.765Z,82.5
2019-04-14T17:59:43.130Z,82.7
2019-04-14T18:04:38.596Z,82.9
2019-04-14T18:09:34.105Z,82.9
2019-04-14T18:14:29.193Z,83
2019-04-14T18:19:24.794Z,83.1
2019-04-14T18:24:20.413Z,83.2
2019-04-14T18:29:15.366Z,83.2
2019-04-14T18:34:12.339Z,83.3
2019-04-14T18:39:06.583Z,83.6
2019-04-14T18:44:02.219Z,83.7
2019-04-14T18:48:57.705Z,84
2019-04-14T18:53:53.201Z,83.6
2019-04-14T18:58:48.741Z,83.7
2019-04-14T19:03:44.180Z,84.1
2019-04-14T19:08:39.677Z,84
2019-04-14T19:13:35.113Z,83.8
2019-04-14T19:18:30.431Z,84.1
2019-04-14T19:23:25.870Z,84
2019-04-14T19:28:21.588Z,84
2019-04-14T19:33:16.862Z,84.4
2019-04-14T19:38:12.295Z,84.3
2019-04-14T19:43:07.067Z,84.2
2019-04-14T19:48:02.219Z,84.3
2019-04-14T19:52:57.645Z,84.3
2019-04-14T19:57:53.353Z,84.8
2019-04-14T20:02:48.658Z,84.8
2019-04-14T20:07:44.026Z,85.2
2019-04-14T20:12:39.557Z,85.9
2019-04-14T20:17:34.956Z,85.9
2019-04-14T20:22:30.614Z,86.1
2019-04-14T20:27:26.219Z,85.6
2019-04-14T20:32:21.702Z,85.1
2019-04-14T20:37:17.398Z,85.1
2019-04-14T20:42:12.995Z,84.8
2019-04-14T20:47:08.732Z,85.4
2019-04-14T20:52:04.203Z,85.9
2019-04-14T20:56:59.917Z,86.2
2019-04-14T21:01:55.349Z,86.3
2019-04-14T21:06:50.900Z,86.3
2019-04-14T21:11:46.457Z,86.5
2019-04-14T21:16:42.061Z,86.5
2019-04-14T21:21:37.509Z,86.4
2019-04-14T21:26:33.206Z,86.4
2019-04-14T21:31:28.617Z,86.3
2019-04-14T21:36:24.364Z,86.3
2019-04-14T21:41:19.946Z,86.2
2019-04-14T21:46:15.587Z,86.2
2019-04-14T21:51:11.305Z,86.4
2019-04-14T21:56:13.045Z,86.6
2019-04-14T22:01:02.486Z,86.7
2019-04-14T22:05:58.105Z,86.5
2019-04-14T22:10:53.279Z,86.6
2019-04-14T22:15:49.002Z,86.6
2019-04-14T22:20:44.317Z,86.6
2019-04-14T22:25:39.732Z,86.7
2019-04-14T22:30:35.194Z,86.7
2019-04-14T22:35:30.753Z,86.6
2019-04-14T22:40:26.177Z,86.7
2019-04-14T22:45:22.088Z,86.6
2019-04-14T22:50:17.597Z,86.7
2019-04-14T22:55:13.136Z,86.7
2019-04-14T23:00:08.630Z,86.7
2019-04-14T23:05:04.227Z,86.8
2019-04-14T23:09:59.495Z,86.8
2019-04-14T23:14:55.089Z,86.8
2019-04-14T23:19:50.414Z,86.7
2019-04-14T23:24:45.936Z,86.9
2019-04-14T23:29:41.656Z,86.8
2019-04-14T23:34:36.993Z,86.6
2019-04-14T23:39:32.589Z,86.9
2019-04-14T23:44:27.974Z,86.7
2019-04-14T23:49:23.597Z,86.8
2019-04-14T23:54:19.130Z,86.7
2019-04-14T23:59:14.800Z,87.1
